Flight Track Log - Related Links

Times and Time Zones

All times are in EDT time to prevent confusion due to time zone crossing. See the NLY2803 flight status page for this flight to view local times or setup timezone preferences in your user account.

Time Position Orientation Groundspeed Altitude Reporting Facility
EDT Latitude Longitude Course Direction KTS MPH feet Rate Location/Type
Mon 08:55:31 AM 36.4210 25.4690 339° North 134 154 1,800  Level FlightAware ADS-B
Mon 08:55:47 AM 36.4300 25.4630 332° Northwest 143 165 2,300 1,500 Climbing FlightAware ADS-B
Mon 08:55:51 AM 36.4320 25.4600 310° West 151 174 2,300 500 Level FlightAware ADS-B
Mon 08:55:59 AM 36.4330 25.4520 279° West 168 193 2,400 750 Climbing FlightAware ADS-B
Mon 08:56:15 AM 36.4340 25.4350 274° West 191 220 2,600 706 Climbing FlightAware ADS-B
Mon 08:56:33 AM 36.4340 25.4160 270° West 212 244 2,800 938 Climbing FlightAware ADS-B
Mon 08:56:47 AM 36.4350 25.3960 274° West 230 265 3,100 1,231 Climbing FlightAware ADS-B
Mon 08:57:12 AM 36.4420 25.3650 286° West 245 282 3,600 1,667 Climbing FlightAware ADS-B
Mon 08:57:23 AM 36.4500 25.3510 305° West 251 289 4,100 2,444 Climbing FlightAware ADS-B
Mon 08:57:39 AM 36.4590 25.3310 299° West 266 306 4,700 2,667 Climbing FlightAware ADS-B
Mon 08:57:59 AM 36.4700 25.3020 295° West 267 307 5,700 2,850 Climbing FlightAware ADS-B
Mon 08:58:19 AM 36.4800 25.2750 295° West 270 311 6,600 2,488 Climbing FlightAware ADS-B
Mon 08:58:40 AM 36.4910 25.2450 295° West 281 323 7,400 2,318 Climbing FlightAware ADS-B
Mon 08:59:03 AM 36.5030 25.2110 294° West 287 330 8,300 2,372 Climbing FlightAware ADS-B
Mon 08:59:23 AM 36.5140 25.1800 294° West 287 330 9,100 2,444 Climbing FlightAware ADS-B
Mon 08:59:57 AM 36.5320 25.1290 294° West 290 334 10,500 1,800 Climbing FlightAware ADS-B
Mon 09:00:33 AM 36.5530 25.0700 294° West 322 371 11,200 1,083 Climbing FlightAware ADS-B
Mon 09:01:09 AM 36.5760 25.0060 294° West 353 406 11,800 1,147 Climbing FlightAware ADS-B
Mon 09:01:41 AM 36.5980 24.9450 294° West 373 429 12,500 1,765 Climbing FlightAware ADS-B
Mon 09:02:17 AM 36.6240 24.8720 294° West 380 437 13,800 2,000 Climbing FlightAware ADS-B
Mon 09:02:53 AM 36.6500 24.7990 294° West 389 448 14,900 1,917 Climbing FlightAware ADS-B
Mon 09:03:29 AM 36.6760 24.7240 293° West 393 452 16,100 1,826 Climbing FlightAware ADS-B
Mon 09:04:02 AM 36.6990 24.6580 294° West 402 463 17,000 1,606 Climbing FlightAware ADS-B
Mon 09:04:40 AM 36.7280 24.5760 294° West 403 464 18,000 1,680 Climbing FlightAware ADS-B
Mon 09:04:52 AM 36.7410 24.5510 303° West 398 458 18,400 1,688 Climbing FlightAware ADS-B
Mon 09:05:12 AM 36.7670 24.5210 317° Northwest 391 450 18,900 1,500 Climbing FlightAware ADS-B
Mon 09:05:28 AM 36.7940 24.5080 339° North 390 449 19,300 1,385 Climbing FlightAware ADS-B
Mon 09:06:04 AM 36.8570 24.4910 348° North 398 458 20,100 1,324 Climbing FlightAware ADS-B
Mon 09:06:36 AM 36.9160 24.4750 348° North 405 466 20,800 1,412 Climbing FlightAware ADS-B
Mon 09:07:12 AM 36.9830 24.4560 347° North 408 470 21,700 1,417 Climbing FlightAware ADS-B
Mon 09:07:48 AM 37.0490 24.4380 348° North 414 476 22,500 1,324 Climbing FlightAware ADS-B
Mon 09:08:20 AM 37.1110 24.4210 348° North 420 483 23,200 1,412 Climbing FlightAware ADS-B
Mon 09:08:56 AM 37.1760 24.4030 348° North 420 483 24,100 1,522 Climbing FlightAware ADS-B
Mon 09:09:27 AM 37.2340 24.3870 348° North 421 484 24,900 1,500 Climbing FlightAware ADS-B
Mon 09:10:04 AM 37.3090 24.3670 348° North 425 489 25,800 1,250 Climbing FlightAware ADS-B
Mon 09:10:39 AM 37.3730 24.3500 348° North 427 491 26,400 1,068 Climbing FlightAware ADS-B
Mon 09:11:17 AM 37.4460 24.3300 348° North 430 495 27,100 1,245 Climbing FlightAware ADS-B
Mon 09:11:32 AM 37.4710 24.3230 347° North 429 494 27,500 1,701 Climbing FlightAware ADS-B
Mon 09:12:24 AM 37.5720 24.2930 347° North 421 484 29,000 1,565 Climbing FlightAware ADS-B
Mon 09:13:04 AM 37.6470 24.2620 342° North 420 483 29,900 1,378 Climbing FlightAware ADS-B
Mon 09:13:38 AM 37.7050 24.2380 342° North 416 479 30,700 1,629 Climbing FlightAware ADS-B
Mon 09:14:14 AM 37.7780 24.2080 342° North 410 472 31,800 1,421 Climbing FlightAware ADS-B
Mon 09:14:54 AM 37.8440 24.1810 342° North 411 473 32,500 1,135 Climbing FlightAware ADS-B
Mon 09:15:28 AM 37.9070 24.1550 342° North 408 470 33,200 1,029 Climbing FlightAware ADS-B
Mon 09:16:04 AM 37.9700 24.1280 341° North 409 471 33,700 686 Climbing FlightAware ADS-B
Mon 09:16:38 AM 38.0370 24.1010 342° North 411 473 34,000 257 Climbing FlightAware ADS-B
Mon 09:17:14 AM 38.0990 24.0750 342° North 406 467 34,000  Level FlightAware ADS-B
Mon 09:17:56 AM 38.1690 24.0450 341° North 404 465 34,000  Level FlightAware ADS-B
Mon 09:18:30 AM 38.2360 24.0170 342° North 402 463 34,000  Level FlightAware ADS-B
Mon 09:19:00 AM 38.2880 23.9950 342° North 401 461 34,000  Level FlightAware ADS-B
Mon 09:19:34 AM 38.3480 23.9700 342° North 402 463 34,000  Level FlightAware ADS-B
Mon 09:20:02 AM 38.3980 23.9500 343° North 404 465 34,000  Level FlightAware ADS-B
Mon 09:20:36 AM 38.4570 23.9250 342° North 406 467 34,000  Level FlightAware ADS-B
Mon 09:21:14 AM 38.5230 23.8970 342° North 408 470 34,000  Level FlightAware ADS-B
Mon 09:21:48 AM 38.5850 23.8700 341° North 410 472 34,000 77 Level FlightAware ADS-B
Mon 09:22:32 AM 38.6690 23.8350 342° North 411 473 34,100 70 Climbing FlightAware ADS-B
Mon 09:23:14 AM 38.7380 23.8050 341° North 409 471 34,100  Level FlightAware ADS-B
Mon 09:24:02 AM 38.8170 23.7710 341° North 407 468 34,100 -75 Level FlightAware ADS-B
Mon 09:24:34 AM 38.8850 23.7430 342° North 404 465 34,000 -83 Descending FlightAware ADS-B
Mon 09:25:14 AM 38.9570 23.7120 341° North 395 455 34,000  Level FlightAware ADS-B
Mon 09:25:49 AM 39.0170 23.6860 341° North 395 455 34,000  Level FlightAware ADS-B
Mon 09:26:19 AM 39.0700 23.6640 342° North 395 455 34,000  Level FlightAware ADS-B
Mon 09:27:04 AM 39.1460 23.6300 341° North 403 464 34,000  Level FlightAware ADS-B
Mon 09:27:40 AM 39.2000 23.6070 342° North 403 464 34,000  Level FlightAware ADS-B
Mon 09:28:11 AM 39.2700 23.5740 340° North 398 458 34,000  Level FlightAware ADS-B
Mon 09:28:51 AM 39.3370 23.5410 339° North 399 459 34,000  Level FlightAware ADS-B
Mon 09:29:21 AM 39.3930 23.5140 340° North 398 458 34,000  Level FlightAware ADS-B
Mon 09:30:06 AM 39.4710 23.4760 339° North 397 457 34,000  Level FlightAware ADS-B
Mon 09:30:41 AM 39.5330 23.4460 340° North 396 456 34,000  Level FlightAware ADS-B
Mon 09:31:17 AM 39.5940 23.4160 339° North 396 456 34,000  Level FlightAware ADS-B
Mon 09:31:51 AM 39.6550 23.3870 340° North 394 453 34,000  Level FlightAware ADS-B
Mon 09:32:26 AM 39.7150 23.3580 340° North 393 452 34,000  Level FlightAware ADS-B
Mon 09:33:01 AM 39.7770 23.3270 339° North 393 452 34,000 86 Level FlightAware ADS-B
Mon 09:33:36 AM 39.8380 23.2980 340° North 397 457 34,100 514 Climbing FlightAware ADS-B
Mon 09:34:11 AM 39.9000 23.2720 342° North 406 467 34,600 857 Climbing FlightAware ADS-B
Mon 09:34:46 AM 39.9610 23.2470 343° North 406 467 35,100 857 Climbing FlightAware ADS-B
Mon 09:35:21 AM 40.0260 23.2200 342° North 407 468 35,600 771 Climbing FlightAware ADS-B
Mon 09:35:56 AM 40.0880 23.1940 342° North 403 464 36,000 343 Climbing FlightAware ADS-B
Mon 09:36:31 AM 40.1510 23.1680 342° North 402 463 36,000  Level FlightAware ADS-B
Mon 09:37:06 AM 40.2130 23.1430 343° North 392 451 36,000  Level FlightAware ADS-B
Mon 09:37:41 AM 40.2740 23.1170 342° North 390 449 36,000  Level FlightAware ADS-B
Mon 09:38:17 AM 40.3360 23.0920 343° North 391 450 36,000  Level FlightAware ADS-B
Mon 09:38:56 AM 40.4060 23.0620 342° North 391 450 36,000  Level FlightAware ADS-B
Mon 09:39:26 AM 40.4570 23.0410 343° North 392 451 36,000  Level FlightAware ADS-B
Mon 09:40:01 AM 40.5190 23.0150 342° North 402 463 36,000  Level FlightAware ADS-B
Mon 09:40:36 AM 40.5820 22.9890 343° North 403 464 36,000  Level FlightAware ADS-B
Mon 09:41:11 AM 40.6450 22.9620 342° North 404 465 36,000  Level FlightAware ADS-B
Mon 09:41:46 AM 40.7070 22.9360 342° North 405 466 36,000  Level FlightAware ADS-B
Mon 09:42:21 AM 40.7690 22.9100 342° North 407 468 36,000 80 Level FlightAware ADS-B
Mon 09:43:01 AM 40.8410 22.8800 343° North 406 467 36,100  Climbing FlightAware ADS-B
Mon 09:43:31 AM 40.8950 22.8570 342° North 406 467 36,000 -91 Descending FlightAware ADS-B
Mon 09:44:07 AM 40.9580 22.8300 342° North 406 467 36,000  Level FlightAware ADS-B
Mon 09:44:42 AM 41.0200 22.8040 342° North 405 466 36,000  Level FlightAware ADS-B
Mon 09:45:26 AM 41.1000 22.7700 342° North 404 465 36,000  Level FlightAware ADS-B
Mon 09:46:01 AM 41.1620 22.7440 342° North 403 464 36,000  Level FlightAware ADS-B
Mon 09:46:36 AM 41.2240 22.7180 342° North 403 464 36,000  Level FlightAware ADS-B
Mon 09:47:11 AM 41.2860 22.6930 343° North 403 464 36,000  Level FlightAware ADS-B
Mon 09:47:51 AM 41.3580 22.6630 343° North 404 465 36,000  Level FlightAware ADS-B
Mon 09:48:26 AM 41.4200 22.6360 342° North 404 465 36,000  Level FlightAware ADS-B
Mon 09:49:01 AM 41.4840 22.6100 343° North 406 467 36,000  Level FlightAware ADS-B
Mon 09:49:36 AM 41.5440 22.5850 343° North 408 470 36,000  Level FlightAware ADS-B
Mon 09:50:11 AM 41.6090 22.5570 342° North 402 463 36,000 86 Level FlightAware ADS-B
Mon 09:50:46 AM 41.6720 22.5310 343° North 402 463 36,100 86 Climbing FlightAware ADS-B
Mon 09:51:21 AM 41.7360 22.5030 342° North 402 463 36,100 -86 Level FlightAware ADS-B
Mon 09:51:56 AM 41.7950 22.4780 342° North 408 470 36,000 -86 Descending FlightAware ADS-B
Mon 09:52:31 AM 41.8570 22.4520 343° North 408 470 36,000  Level FlightAware ADS-B
Mon 09:53:06 AM 41.9200 22.4250 342° North 408 470 36,000  Level FlightAware ADS-B
Mon 09:53:41 AM 41.9840 22.3980 343° North 407 468 36,000  Level FlightAware ADS-B
Mon 09:54:15 AM 42.0500 22.3700 343° North 407 468 36,000  Level FlightAware ADS-B
Mon 09:54:55 AM 42.1210 22.3390 342° North 407 468 36,000  Level FlightAware ADS-B
Mon 09:55:27 AM 42.1780 22.3150 343° North 406 467 36,000  Level FlightAware ADS-B
Mon 09:56:05 AM 42.2480 22.2840 342° North 406 467 36,000  Level FlightAware ADS-B
Mon 09:56:39 AM 42.3080 22.2590 343° North 407 468 36,000  Level FlightAware ADS-B
Mon 09:57:11 AM 42.3640 22.2310 340° North 407 468 36,000  Level FlightAware ADS-B
Mon 09:57:43 AM 42.4200 22.2020 339° North 409 471 36,000  Level FlightAware ADS-B
Mon 09:58:23 AM 42.4920 22.1640 339° North 410 472 36,000  Level FlightAware ADS-B
Mon 09:58:59 AM 42.5560 22.1300 339° North 412 474 36,000  Level FlightAware ADS-B
Mon 09:59:35 AM 42.6200 22.0960 339° North 412 474 36,000  Level FlightAware ADS-B
Mon 10:00:07 AM 42.6760 22.0670 339° North 413 475 36,000  Level FlightAware ADS-B
Mon 10:00:43 AM 42.7410 22.0320 338° Northwest 413 475 36,000  Level FlightAware ADS-B
Mon 10:01:17 AM 42.8020 22.0000 339° North 413 475 36,000  Level FlightAware ADS-B
Mon 10:01:53 AM 42.8640 21.9660 338° Northwest 414 476 36,000  Level FlightAware ADS-B
Mon 10:02:29 AM 42.9280 21.9320 339° North 414 476 36,000  Level FlightAware ADS-B
Mon 10:03:01 AM 42.9870 21.9010 339° North 414 476 36,000 -529 Level FlightAware ADS-B
Mon 10:03:37 AM 43.0510 21.8660 338° Northwest 412 474 35,400 -973 Descending FlightAware ADS-B
Mon 10:04:15 AM 43.1180 21.8310 339° North 413 475 34,800 -943 Descending FlightAware ADS-B
Mon 10:04:47 AM 43.1760 21.7990 338° Northwest 417 480 34,300 -727 Descending FlightAware ADS-B
Mon 10:05:21 AM 43.2360 21.7670 339° North 416 479 34,000 -250 Descending FlightAware ADS-B
Mon 10:05:59 AM 43.3050 21.7290 338° Northwest 417 480 34,000  Level FlightAware ADS-B
Mon 10:06:35 AM 43.3680 21.6950 339° North 418 481 34,000  Level FlightAware ADS-B
Mon 10:07:07 AM 43.4250 21.6640 338° Northwest 420 483 34,000  Level FlightAware ADS-B
Mon 10:07:43 AM 43.4900 21.6280 338° Northwest 421 484 34,000  Level FlightAware ADS-B
Mon 10:08:19 AM 43.5580 21.5910 338° Northwest 421 484 34,000  Level FlightAware ADS-B
Mon 10:08:55 AM 43.6220 21.5560 338° Northwest 421 484 34,000  Level FlightAware ADS-B
Mon 10:09:27 AM 43.6800 21.5240 338° Northwest 420 483 34,000  Level FlightAware ADS-B
Mon 10:10:01 AM 43.7400 21.4910 338° Northwest 420 483 34,000  Level FlightAware ADS-B
Mon 10:10:39 AM 43.8100 21.4530 339° North 419 482 34,000  Level FlightAware ADS-B
Mon 10:11:29 AM 43.8810 21.4130 338° Northwest 418 481 34,000  Level FlightAware ADS-B
Mon 10:12:01 AM 43.9530 21.3730 338° Northwest 417 480 34,000  Level FlightAware ADS-B
Mon 10:12:37 AM 44.0210 21.3360 339° North 417 480 34,000  Level FlightAware ADS-B
Mon 10:13:11 AM 44.0830 21.3010 338° Northwest 418 481 34,000  Level FlightAware ADS-B
Mon 10:13:43 AM 44.1390 21.2700 338° Northwest 418 481 34,000  Level FlightAware ADS-B
Mon 10:14:28 AM 44.2220 21.2240 338° Northwest 418 481 34,000  Level FlightAware ADS-B
Mon 10:15:04 AM 44.2840 21.1890 338° Northwest 419 482 34,000  Level FlightAware ADS-B
Mon 10:15:40 AM 44.3490 21.1520 338° Northwest 420 483 34,000  Level FlightAware ADS-B
Mon 10:16:12 AM 44.4070 21.1200 338° Northwest 422 486 34,000  Level FlightAware ADS-B
Mon 10:16:48 AM 44.4730 21.0830 338° Northwest 423 487 34,000  Level FlightAware ADS-B
Mon 10:17:25 AM 44.5370 21.0460 338° Northwest 425 489 34,000 83 Level FlightAware ADS-B
Mon 10:18:00 AM 44.6050 21.0080 338° Northwest 425 489 34,100  Climbing FlightAware ADS-B
Mon 10:18:34 AM 44.6640 20.9740 338° Northwest 425 489 34,000 -79 Descending FlightAware ADS-B
Mon 10:19:16 AM 44.7380 20.9320 338° Northwest 419 482 34,000  Level FlightAware ADS-B
Mon 10:19:46 AM 44.7940 20.9000 338° Northwest 419 482 34,000  Level FlightAware ADS-B
Mon 10:20:28 AM 44.8710 20.8560 338° Northwest 426 490 34,000  Level FlightAware ADS-B
Mon 10:21:01 AM 44.9330 20.8200 338° Northwest 426 490 34,000  Level FlightAware ADS-B
Mon 10:21:44 AM 45.0100 20.7750 338° Northwest 426 490 34,000  Level FlightAware ADS-B
Mon 10:22:25 AM 45.0800 20.7350 338° Northwest 426 490 34,000  Level FlightAware ADS-B
Mon 10:23:00 AM 45.1510 20.6940 338° Northwest 427 491 34,000  Level FlightAware ADS-B
Mon 10:23:35 AM 45.2160 20.6560 338° Northwest 428 493 34,000  Level FlightAware ADS-B
Mon 10:24:10 AM 45.2800 20.6190 338° Northwest 429 494 34,000  Level FlightAware ADS-B
Mon 10:24:44 AM 45.3420 20.5830 338° Northwest 429 494 34,000  Level FlightAware ADS-B
Mon 10:25:18 AM 45.3980 20.5500 338° Northwest 429 494 34,000  Level FlightAware ADS-B
Mon 10:25:53 AM 45.4620 20.5130 338° Northwest 429 494 34,000  Level FlightAware ADS-B
Mon 10:26:28 AM 45.5330 20.4710 337° Northwest 427 491 34,000  Level FlightAware ADS-B
Mon 10:27:04 AM 45.5970 20.4330 337° Northwest 426 490 34,000  Level FlightAware ADS-B
Mon 10:27:45 AM 45.6710 20.3890 337° Northwest 425 489 34,000  Level FlightAware ADS-B
Mon 10:28:22 AM 45.7390 20.3490 338° Northwest 426 490 34,000  Level FlightAware ADS-B
Mon 10:28:59 AM 45.8060 20.3090 337° Northwest 428 493 34,000  Level FlightAware ADS-B
Mon 10:29:29 AM 45.8620 20.2760 338° Northwest 430 495 34,000  Level FlightAware ADS-B
Mon 10:30:04 AM 45.9240 20.2390 337° Northwest 432 497 34,000  Level FlightAware ADS-B
Mon 10:30:40 AM 45.9920 20.1980 337° Northwest 435 501 34,000  Level FlightAware ADS-B
Mon 10:31:17 AM 46.0630 20.1560 338° Northwest 437 503 34,000  Level FlightAware ADS-B
Mon 10:31:50 AM 46.1190 20.1190 335° Northwest 434 499 34,000  Level FlightAware ADS-B
Mon 10:32:26 AM 46.1740 20.0560 322° Northwest 415 478 34,000  Level FlightAware ADS-B
Mon 10:33:02 AM 46.2230 19.9800 313° West 418 481 34,000  Level FlightAware ADS-B
Mon 10:33:39 AM 46.2720 19.9040 313° West 423 487 34,000  Level FlightAware ADS-B
Mon 10:34:09 AM 46.3120 19.8410 313° West 426 490 34,000 95 Level FlightAware ADS-B
Mon 10:34:42 AM 46.3570 19.7710 313° West 428 493 34,100 85 Climbing FlightAware ADS-B
Mon 10:35:20 AM 46.4080 19.6910 313° West 427 491 34,100  Level FlightAware ADS-B
Mon 10:35:53 AM 46.4500 19.6240 312° West 426 490 34,100 -83 Level FlightAware ADS-B
Mon 10:36:32 AM 46.5040 19.5400 313° West 426 490 34,000 -81 Descending FlightAware ADS-B
Mon 10:37:07 AM 46.5510 19.4660 313° West 428 493 34,000  Level FlightAware ADS-B
Mon 10:37:42 AM 46.5970 19.3920 312° West 431 496 34,000  Level FlightAware ADS-B
Mon 10:38:21 AM 46.6470 19.3140 313° West 433 498 34,000 79 Level FlightAware ADS-B
Mon 10:38:58 AM 46.7000 19.2280 312° West 433 498 34,100 82 Climbing FlightAware ADS-B
Mon 10:39:34 AM 46.7490 19.1510 313° West 431 496 34,100 -87 Level FlightAware ADS-B
Mon 10:40:07 AM 46.7930 19.0800 312° West 430 495 34,000 -86 Descending FlightAware ADS-B
Mon 10:40:44 AM 46.8430 19.0000 312° West 431 496 34,000  Level FlightAware ADS-B
Mon 10:41:20 AM 46.8910 18.9220 312° West 433 498 34,000  Level FlightAware ADS-B
Mon 10:41:53 AM 46.9340 18.8520 312° West 436 502 34,000  Level FlightAware ADS-B
Mon 10:42:30 AM 46.9840 18.7710 312° West 439 505 34,000  Level FlightAware ADS-B
Mon 10:43:03 AM 47.0290 18.6980 312° West 442 509 34,000 88 Level FlightAware ADS-B
Mon 10:43:38 AM 47.0760 18.6210 312° West 444 511 34,100 -169 Climbing FlightAware ADS-B
Mon 10:44:14 AM 47.1260 18.5390 312° West 446 513 33,800 -1,971 Descending FlightAware ADS-B
Mon 10:44:48 AM 47.1750 18.4590 312° West 456 525 31,800 -3,909 Descending FlightAware ADS-B
Mon 10:45:20 AM 47.2200 18.3850 312° West 468 539 29,500 -3,851 Descending FlightAware ADS-B
Mon 10:45:55 AM 47.2690 18.3040 312° West 464 534 27,500 -3,474 Descending FlightAware ADS-B
Mon 10:46:36 AM 47.3260 18.2090 312° West 461 531 25,100 -2,850 Descending FlightAware ADS-B
Mon 10:47:15 AM 47.3800 18.1190 312° West 433 498 23,700 -1,760 Descending FlightAware ADS-B
Mon 10:47:51 AM 47.4220 18.0490 312° West 410 472 22,900 -1,913 Descending FlightAware ADS-B
Mon 10:48:24 AM 47.4670 17.9730 311° West 398 458 21,500 -2,294 Descending FlightAware ADS-B
Mon 10:48:59 AM 47.5090 17.9040 312° West 388 447 20,300 -2,261 Descending FlightAware ADS-B
Mon 10:49:33 AM 47.5490 17.8360 311° West 384 442 18,900 -2,261 Descending FlightAware ADS-B
Mon 10:50:08 AM 47.5900 17.7670 311° West 373 429 17,700 -2,118 Descending FlightAware ADS-B
Mon 10:50:41 AM 47.6260 17.7060 311° West 368 423 16,500 -2,069 Descending FlightAware ADS-B
Mon 10:51:06 AM 47.6500 17.6560 305° West 358 412 15,700 -1,672 Descending FlightAware ADS-B
Mon 10:51:42 AM 47.6740 17.5740 294° West 339 390 14,800 -1,273 Descending FlightAware ADS-B
Mon 10:52:12 AM 47.6910 17.5150 293° West 325 374 14,300 -1,154 Descending FlightAware ADS-B
Mon 10:53:00 AM 47.7170 17.4220 293° West 304 350 13,300 -1,793 Descending FlightAware ADS-B
Mon 10:53:39 AM 47.7390 17.3440 293° West 316 364 11,700 -2,211 Descending FlightAware ADS-B
Mon 10:54:16 AM 47.7590 17.2710 292° West 314 361 10,500 -1,889 Descending FlightAware ADS-B
Mon 10:54:33 AM 47.7690 17.2350 292° West 311 358 10,000 -1,588 Descending FlightAware ADS-B
Mon 10:54:50 AM 47.7780 17.2020 292° West 306 352 9,600 -1,421 Descending FlightAware ADS-B
Mon 10:55:11 AM 47.7900 17.1620 294° West 300 345 9,100 -1,364 Descending FlightAware ADS-B
Mon 10:55:34 AM 47.8010 17.1210 292° West 291 335 8,600 -1,286 Descending FlightAware ADS-B
Mon 10:55:53 AM 47.8110 17.0860 293° West 284 327 8,200 -1,235 Descending FlightAware ADS-B
Mon 10:56:08 AM 47.8190 17.0570 292° West 279 321 7,900 -1,412 Descending FlightAware ADS-B
Mon 10:56:27 AM 47.8280 17.0240 292° West 274 315 7,400 -1,610 Descending FlightAware ADS-B
Mon 10:56:49 AM 47.8390 16.9840 292° West 268 308 6,800 -1,571 Descending FlightAware ADS-B
Mon 10:57:09 AM 47.8480 16.9500 292° West 265 305 6,300 -1,421 Descending FlightAware ADS-B
Mon 10:57:27 AM 47.8570 16.9190 293° West 260 299 5,900 -1,429 Descending FlightAware ADS-B
Mon 10:57:51 AM 47.8670 16.8810 291° West 256 295 5,300 -1,375 Descending FlightAware ADS-B
Mon 10:58:15 AM 47.8810 16.8450 300° West 243 280 4,800 -1,364 Descending FlightAware ADS-B
Mon 10:58:35 AM 47.8930 16.8170 303° West 239 275 4,300 -1,950 Descending FlightAware ADS-B
Mon 10:58:55 AM 47.9050 16.7890 303° West 239 275 3,500 -2,000 Descending FlightAware ADS-B
Mon 10:59:11 AM 47.9150 16.7670 304° West 239 275 3,100 -1,200 Descending FlightAware ADS-B
Mon 10:59:25 AM 47.9230 16.7480 302° West 232 267 2,900 -600 Descending FlightAware ADS-B
Mon 10:59:51 AM 47.9370 16.7170 304° West 215 247 2,700 -558 Descending FlightAware ADS-B
Mon 11:00:08 AM 47.9460 16.6960 303° West 202 232 2,500 -324 Descending FlightAware ADS-B
Mon 11:00:28 AM 47.9560 16.6740 304° West 184 212 2,500  Level FlightAware ADS-B
Mon 11:00:49 AM 47.9650 16.6520 301° West 181 208 2,500  Level FlightAware ADS-B
Mon 11:00:57 AM 47.9700 16.6440 313° West 184 212 2,500  Level FlightAware ADS-B
Mon 11:01:09 AM 47.9800 16.6380 338° Northwest 188 216 2,500 -188 Level FlightAware ADS-B
Mon 11:01:29 AM 47.9960 16.6310 344° North 171 197 2,400 -682 Descending FlightAware ADS-B
Mon 11:01:53 AM 48.0130 16.6230 343° North 161 185 2,000 -818 Descending FlightAware ADS-B
Mon 11:02:13 AM 48.0270 16.6170 344° North 149 171 1,800 -882 Descending FlightAware ADS-B
Mon 11:02:27 AM 48.0360 16.6140 347° North 147 169 1,500 -900 Descending FlightAware ADS-B
Mon 11:02:53 AM 48.0530 16.6070 345° North 137 158 1,200 -625 Descending FlightAware ADS-B
Mon 11:03:15 AM 48.0660 16.6010 343° North 136 157 1,000 -600 Descending FlightAware ADS-B
Mon 11:03:33 AM 48.0760 16.5970 345° North 136 157 800 -261 Descending FlightAware ADS-B
Mon 11:04:01 AM 48.0900 16.5900 342° North 136 157 800  Level FlightAware ADS-B
Mon 11:06:00 AM 48.1103 16.5697 326° Northwest  Level Estimated

Login

Don't have an account? Register now (free) for customized features, flight alerts, and more!